Time,TemperatureF,DewpointF,PressureIn,WindDirection,WindDirectionDegrees,WindSpeedMPH,WindSpeedGustMPH,Humidity,HourlyPrecipIn,Conditions,Clouds,dailyrainin,SoftwareType,DateUTC
2013-11-02 00:03:00,48.4,23.4,30.24,SSW,197,0.0,4.0,37,0.00,,,0.00,meteohub,2013-11-02 06:03:00,
2013-11-02 00:08:00,48.4,23.4,30.25,SSW,197,2.0,4.0,37,0.00,,,0.00,meteohub,2013-11-02 06:08:00,
2013-11-02 00:13:00,48.4,23.4,30.24,SSW,197,0.0,2.0,37,0.00,,,0.00,meteohub,2013-11-02 06:13:00,
2013-11-02 00:18:00,48.2,23.7,30.25,SSW,197,0.0,3.0,38,0.00,,,0.00,meteohub,2013-11-02 06:18:00,
2013-11-02 00:23:00,48.0,23.5,30.25,SSW,196,0.0,3.0,38,0.00,,,0.00,meteohub,2013-11-02 06:23:00,
2013-11-02 00:29:00,47.5,23.7,30.25,NE,40,0.0,1.0,39,0.00,,,0.00,meteohub,2013-11-02 06:29:00,
2013-11-02 00:34:00,46.9,23.9,30.25,NE,40,0.0,6.0,40,0.00,,,0.00,meteohub,2013-11-02 06:34:00,
2013-11-02 00:39:00,46.6,24.1,30.25,NE,40,0.0,6.0,41,0.00,,,0.00,meteohub,2013-11-02 06:39:00,
2013-11-02 00:44:00,46.2,23.9,30.25,NE,40,1.0,6.0,41,0.00,,,0.00,meteohub,2013-11-02 06:44:00,
2013-11-02 00:49:00,45.9,23.5,30.25,NE,40,0.0,4.0,41,0.00,,,0.00,meteohub,2013-11-02 06:49:00,
2013-11-02 00:54:00,45.7,23.9,30.25,NE,40,0.0,2.0,42,0.00,,,0.00,meteohub,2013-11-02 06:54:00,
2013-11-02 00:59:00,45.3,23.5,30.25,NE,40,0.0,1.0,42,0.00,,,0.00,meteohub,2013-11-02 06:59:00,
2013-11-02 01:04:00,45.1,23.9,30.25,NE,40,0.0,1.0,43,0.00,,,0.00,meteohub,2013-11-02 07:04:00,
2013-11-02 01:09:00,45.0,23.7,30.25,NE,40,0.0,3.0,43,0.00,,,0.00,meteohub,2013-11-02 07:09:00,
2013-11-02 01:14:00,45.0,23.7,30.25,NE,40,0.0,3.0,43,0.00,,,0.00,meteohub,2013-11-02 07:14:00,
2013-11-02 01:19:00,44.8,23.7,30.25,NE,40,0.0,3.0,43,0.00,,,0.00,meteohub,2013-11-02 07:19:00,
2013-11-02 01:24:00,44.6,23.5,30.25,NE,40,0.0,0.0,43,0.00,,,0.00,meteohub,2013-11-02 07:24:00,
2013-11-02 01:29:00,44.4,23.4,30.25,NE,40,0.0,0.0,43,0.00,,,0.00,meteohub,2013-11-02 07:29:00,
2013-11-02 01:34:00,44.2,23.2,30.25,NE,40,0.0,0.0,43,0.00,,,0.00,meteohub,2013-11-02 07:34:00,
2013-11-02 01:39:00,44.2,23.2,30.25,NE,40,0.0,0.0,43,0.00,,,0.00,meteohub,2013-11-02 07:39:00,
2013-11-02 01:44:00,44.1,22.5,30.25,NE,40,0.0,0.0,42,0.00,,,0.00,meteohub,2013-11-02 07:44:00,
2013-11-02 01:49:00,44.1,23.0,30.25,NE,40,1.0,0.0,43,0.00,,,0.00,meteohub,2013-11-02 07:49:00,
2013-11-02 01:54:00,44.1,22.5,30.25,South,190,0.0,0.0,42,0.00,,,0.00,meteohub,2013-11-02 07:54:00,
2013-11-02 01:59:00,44.1,22.5,30.25,South,190,0.0,5.0,42,0.00,,,0.00,meteohub,2013-11-02 07:59:00,
2013-11-02 02:04:00,44.2,22.6,30.25,South,190,0.0,5.0,42,0.00,,,0.00,meteohub,2013-11-02 08:04:00,
2013-11-02 02:09:00,44.2,23.2,30.25,South,190,0.0,5.0,43,0.00,,,0.00,meteohub,2013-11-02 08:09:00,
2013-11-02 02:14:00,44.2,23.2,30.25,South,190,0.0,1.0,43,0.00,,,0.00,meteohub,2013-11-02 08:14:00,
2013-11-02 02:20:00,44.2,23.2,30.25,South,190,0.0,0.0,43,0.00,,,0.00,meteohub,2013-11-02 08:20:00,
2013-11-02 02:25:00,44.2,23.2,30.25,South,190,0.0,0.0,43,0.00,,,0.00,meteohub,2013-11-02 08:25:00,
2013-11-02 02:30:00,44.2,23.2,30.25,South,190,0.0,0.0,43,0.00,,,0.00,meteohub,2013-11-02 08:30:00,
2013-11-02 02:35:00,44.1,23.0,30.26,South,190,0.0,0.0,43,0.00,,,0.00,meteohub,2013-11-02 08:35:00,
2013-11-02 02:40:00,44.1,23.0,30.25,South,190,0.0,0.0,43,0.00,,,0.00,meteohub,2013-11-02 08:40:00,
2013-11-02 02:45:00,44.1,23.0,30.25,SW,217,0.0,1.0,43,0.00,,,0.00,meteohub,2013-11-02 08:45:00,
2013-11-02 02:50:00,44.1,23.0,30.25,SW,217,0.0,3.0,43,0.00,,,0.00,meteohub,2013-11-02 08:50:00,
2013-11-02 02:55:00,44.1,23.0,30.25,SW,217,0.0,3.0,43,0.00,,,0.00,meteohub,2013-11-02 08:55:00,
2013-11-02 03:00:00,43.9,23.4,30.25,SW,217,0.0,3.0,44,0.00,,,0.00,meteohub,2013-11-02 09:00:00,
2013-11-02 03:05:00,43.9,23.4,30.25,SW,216,1.0,0.0,44,0.00,,,0.00,meteohub,2013-11-02 09:05:00,
2013-11-02 03:10:00,43.3,22.8,30.25,SSW,204,1.0,5.0,44,0.00,,,0.00,meteohub,2013-11-02 09:10:00,
2013-11-02 03:15:00,43.2,22.6,30.25,SSW,204,0.0,5.0,44,0.00,,,0.00,meteohub,2013-11-02 09:15:00,
2013-11-02 03:20:00,43.0,22.6,30.25,SSW,204,0.0,5.0,44,0.00,,,0.00,meteohub,2013-11-02 09:20:00,
2013-11-02 03:25:00,43.0,23.2,30.25,SSW,204,0.0,2.0,45,0.00,,,0.00,meteohub,2013-11-02 09:25:00,
2013-11-02 03:30:00,42.6,23.4,30.25,SSW,204,0.0,2.0,46,0.00,,,0.00,meteohub,2013-11-02 09:30:00,
2013-11-02 03:35:00,42.4,22.6,30.25,SSW,204,0.0,2.0,45,0.00,,,0.00,meteohub,2013-11-02 09:35:00,
2013-11-02 03:40:00,42.4,23.2,30.25,SSW,204,0.0,2.0,46,0.00,,,0.00,meteohub,2013-11-02 09:40:00,
2013-11-02 03:45:00,42.3,23.0,30.25,SSW,204,0.0,1.0,46,0.00,,,0.00,meteohub,2013-11-02 09:45:00,
2013-11-02 03:51:00,42.1,22.8,30.25,SSW,204,0.0,1.0,46,0.00,,,0.00,meteohub,2013-11-02 09:51:00,
2013-11-02 03:56:00,42.1,23.4,30.25,SSW,204,0.0,1.0,47,0.00,,,0.00,meteohub,2013-11-02 09:56:00,
2013-11-02 04:01:00,41.7,23.0,30.25,SSW,204,0.0,1.0,47,0.00,,,0.00,meteohub,2013-11-02 10:01:00,
2013-11-02 04:06:00,41.5,23.4,30.26,SSW,204,1.0,1.0,48,0.00,,,0.00,meteohub,2013-11-02 10:06:00,
2013-11-02 04:11:00,41.4,23.2,30.26,SSW,204,2.0,2.0,48,0.00,,,0.00,meteohub,2013-11-02 10:11:00,
2013-11-02 04:16:00,41.2,23.0,30.25,SSW,204,1.0,3.0,48,0.00,,,0.00,meteohub,2013-11-02 10:16:00,
2013-11-02 04:21:00,41.2,23.0,30.26,SSW,204,2.0,3.0,48,0.00,,,0.00,meteohub,2013-11-02 10:21:00,
2013-11-02 04:26:00,41.0,22.8,30.26,SSW,205,0.0,3.0,48,0.00,,,0.00,meteohub,2013-11-02 10:26:00,
2013-11-02 04:31:00,41.0,22.8,30.26,SSW,205,0.0,4.0,48,0.00,,,0.00,meteohub,2013-11-02 10:31:00,
2013-11-02 04:36:00,41.0,22.8,30.26,SSW,205,0.0,4.0,48,0.00,,,0.00,meteohub,2013-11-02 10:36:00,
2013-11-02 04:41:00,41.0,22.8,30.26,SSW,205,0.0,2.0,48,0.00,,,0.00,meteohub,2013-11-02 10:41:00,
2013-11-02 04:46:00,41.0,22.8,30.26,North,-999,-999.0,0.0,48,0.00,,,0.00,meteohub,2013-11-02 10:46:00,
2013-11-02 04:51:00,40.8,22.6,30.26,SSW,205,0.0,0.0,48,0.00,,,0.00,meteohub,2013-11-02 10:51:00,
2013-11-02 04:56:00,40.8,22.1,30.26,SSW,205,0.0,0.0,47,0.00,,,0.00,meteohub,2013-11-02 10:56:00,
2013-11-02 05:01:00,40.8,22.1,30.26,SSW,205,0.0,0.0,47,0.00,,,0.00,meteohub,2013-11-02 11:01:00,
2013-11-02 05:06:00,41.0,22.3,30.26,SSW,205,0.0,0.0,47,0.00,,,0.00,meteohub,2013-11-02 11:06:00,
2013-11-02 05:11:00,41.2,22.5,30.27,SSW,205,0.0,0.0,47,0.00,,,0.00,meteohub,2013-11-02 11:11:00,
2013-11-02 05:16:00,41.2,22.5,30.27,SSW,205,0.0,0.0,47,0.00,,,0.00,meteohub,2013-11-02 11:16:00,
2013-11-02 05:21:00,41.2,23.0,30.27,SSW,205,0.0,0.0,48,0.00,,,0.00,meteohub,2013-11-02 11:21:00,
2013-11-02 05:26:00,41.2,23.0,30.27,SSW,205,0.0,2.0,48,0.00,,,0.00,meteohub,2013-11-02 11:26:00,
2013-11-02 05:31:00,41.2,23.0,30.27,SSW,210,3.0,3.0,48,0.00,,,0.00,meteohub,2013-11-02 11:31:00,
2013-11-02 05:37:00,41.4,24.1,30.27,WSW,252,0.0,4.0,50,0.00,,,0.00,meteohub,2013-11-02 11:37:00,
2013-11-02 05:42:00,41.4,24.1,30.27,West,260,2.0,4.0,50,0.00,,,0.00,meteohub,2013-11-02 11:42:00,
2013-11-02 05:47:00,41.4,24.1,30.27,West,274,1.0,4.0,50,0.00,,,0.00,meteohub,2013-11-02 11:47:00,
2013-11-02 05:52:00,41.2,23.9,30.28,West,276,1.0,4.0,50,0.00,,,0.00,meteohub,2013-11-02 11:52:00,
2013-11-02 05:57:00,41.2,24.4,30.28,West,276,0.0,4.0,51,0.00,,,0.00,meteohub,2013-11-02 11:57:00,
2013-11-02 06:02:00,41.2,24.4,30.28,West,276,0.0,4.0,51,0.00,,,0.00,meteohub,2013-11-02 12:02:00,
2013-11-02 06:07:00,41.0,24.3,30.28,West,276,2.0,3.0,51,0.00,,,0.00,meteohub,2013-11-02 12:07:00,
2013-11-02 06:12:00,40.6,23.9,30.28,West,276,1.0,3.0,51,0.00,,,0.00,meteohub,2013-11-02 12:12:00,
2013-11-02 06:17:00,40.5,23.7,30.28,West,276,0.0,3.0,51,0.00,,,0.00,meteohub,2013-11-02 12:17:00,
2013-11-02 06:22:00,40.3,24.1,30.28,West,276,0.0,3.0,52,0.00,,,0.00,meteohub,2013-11-02 12:22:00,
2013-11-02 06:27:00,39.9,23.7,30.28,West,276,0.0,3.0,52,0.00,,,0.00,meteohub,2013-11-02 12:27:00,
2013-11-02 06:32:00,39.9,23.7,30.29,West,276,0.0,1.0,52,0.00,,,0.00,meteohub,2013-11-02 12:32:00,
2013-11-02 06:37:00,39.7,23.5,30.29,West,276,0.0,0.0,52,0.00,,,0.00,meteohub,2013-11-02 12:37:00,
2013-11-02 06:42:00,39.7,23.5,30.28,West,276,0.0,0.0,52,0.00,,,0.00,meteohub,2013-11-02 12:42:00,
2013-11-02 06:47:00,39.6,23.4,30.29,West,276,0.0,0.0,52,0.00,,,0.00,meteohub,2013-11-02 12:47:00,
2013-11-02 06:52:00,39.4,23.2,30.29,West,276,0.0,0.0,52,0.00,,,0.00,meteohub,2013-11-02 12:52:00,
2013-11-02 06:57:00,39.2,23.0,30.29,West,276,0.0,0.0,52,0.00,,,0.00,meteohub,2013-11-02 12:57:00,
2013-11-02 07:02:00,39.0,23.4,30.29,West,276,0.0,0.0,53,0.00,,,0.00,meteohub,2013-11-02 13:02:00,
2013-11-02 07:07:00,38.8,22.6,30.29,West,276,0.0,0.0,52,0.00,,,0.00,meteohub,2013-11-02 13:07:00,
2013-11-02 07:12:00,38.7,22.6,30.30,West,276,0.0,0.0,52,0.00,,,0.00,meteohub,2013-11-02 13:12:00,
2013-11-02 07:17:00,38.5,22.5,30.30,West,276,0.0,0.0,52,0.00,,,0.00,meteohub,2013-11-02 13:17:00,
2013-11-02 07:22:00,38.5,22.5,30.30,West,276,0.0,0.0,52,0.00,,,0.00,meteohub,2013-11-02 13:22:00,
2013-11-02 07:27:00,38.1,22.1,30.30,West,276,0.0,0.0,52,0.00,,,0.00,meteohub,2013-11-02 13:27:00,
2013-11-02 07:32:00,38.1,22.1,30.30,West,276,0.0,0.0,52,0.00,,,0.00,meteohub,2013-11-02 13:32:00,
2013-11-02 07:37:00,37.9,21.4,30.30,West,276,0.0,0.0,51,0.00,,,0.00,meteohub,2013-11-02 13:37:00,
2013-11-02 07:42:00,37.9,21.9,30.30,West,276,0.0,0.0,52,0.00,,,0.00,meteohub,2013-11-02 13:42:00,
2013-11-02 07:47:00,37.8,21.7,30.30,West,276,0.0,0.0,52,0.00,,,0.00,meteohub,2013-11-02 13:47:00,
2013-11-02 07:52:00,37.8,22.1,30.31,West,276,0.0,0.0,53,0.00,,,0.00,meteohub,2013-11-02 13:52:00,
2013-11-02 07:57:00,37.8,22.6,30.31,West,276,0.0,0.0,54,0.00,,,0.00,meteohub,2013-11-02 13:57:00,
2013-11-02 08:02:00,37.8,22.6,30.31,West,276,0.0,0.0,54,0.00,,,0.00,meteohub,2013-11-02 14:02:00,
2013-11-02 08:07:00,38.1,22.5,30.31,West,276,0.0,0.0,53,0.00,,,0.00,meteohub,2013-11-02 14:07:00,
2013-11-02 08:12:00,38.8,22.6,30.31,West,276,0.0,0.0,52,0.00,,,0.00,meteohub,2013-11-02 14:12:00,
2013-11-02 08:17:00,39.4,23.7,30.31,West,276,0.0,0.0,53,0.00,,,0.00,meteohub,2013-11-02 14:17:00,
2013-11-02 08:22:00,39.7,23.5,30.32,West,276,0.0,0.0,52,0.00,,,0.00,meteohub,2013-11-02 14:22:00,
2013-11-02 08:27:00,40.3,24.1,30.32,West,276,0.0,0.0,52,0.00,,,0.00,meteohub,2013-11-02 14:27:00,
2013-11-02 08:32:00,40.8,24.1,30.32,West,276,0.0,1.0,51,0.00,,,0.00,meteohub,2013-11-02 14:32:00,
2013-11-02 08:37:00,41.4,23.7,30.32,West,276,0.0,1.0,49,0.00,,,0.00,meteohub,2013-11-02 14:37:00,
2013-11-02 08:42:00,42.1,23.7,30.32,West,276,0.0,1.0,48,0.00,,,0.00,meteohub,2013-11-02 14:42:00,
2013-11-02 08:47:00,42.6,24.3,30.32,West,276,0.0,1.0,48,0.00,,,0.00,meteohub,2013-11-02 14:47:00,
2013-11-02 08:52:00,43.2,24.3,30.32,West,276,0.0,1.0,47,0.00,,,0.00,meteohub,2013-11-02 14:52:00,
2013-11-02 08:57:00,44.1,25.2,30.32,West,276,0.0,1.0,47,0.00,,,0.00,meteohub,2013-11-02 14:57:00,
2013-11-02 09:02:00,44.8,25.3,30.32,West,276,0.0,1.0,46,0.00,,,0.00,meteohub,2013-11-02 15:02:00,
2013-11-02 09:08:00,45.3,25.2,30.32,West,276,0.0,1.0,45,0.00,,,0.00,meteohub,2013-11-02 15:08:00,
2013-11-02 09:13:00,46.2,25.5,30.32,West,276,0.0,1.0,44,0.00,,,0.00,meteohub,2013-11-02 15:13:00,
2013-11-02 09:18:00,46.9,25.5,30.33,West,276,0.0,0.0,43,0.00,,,0.00,meteohub,2013-11-02 15:18:00,
2013-11-02 09:23:00,47.8,26.4,30.33,West,276,0.0,0.0,43,0.00,,,0.00,meteohub,2013-11-02 15:23:00,
2013-11-02 09:28:00,48.4,26.4,30.33,West,276,0.0,0.0,42,0.00,,,0.00,meteohub,2013-11-02 15:28:00,
2013-11-02 09:33:00,49.3,26.6,30.33,West,276,0.0,0.0,41,0.00,,,0.00,meteohub,2013-11-02 15:33:00,
2013-11-02 09:39:00,50.0,26.6,30.33,West,276,0.0,0.0,40,0.00,,,0.00,meteohub,2013-11-02 15:39:00,
2013-11-02 09:44:00,51.1,26.4,30.33,West,276,0.0,1.0,38,0.00,,,0.00,meteohub,2013-11-02 15:44:00,
2013-11-02 09:49:00,52.2,26.1,30.32,West,276,0.0,1.0,36,0.00,,,0.00,meteohub,2013-11-02 15:49:00,
2013-11-02 09:54:00,52.9,25.9,30.33,West,276,0.0,1.0,35,0.00,,,0.00,meteohub,2013-11-02 15:54:00,
2013-11-02 09:59:00,53.8,26.1,30.32,West,276,0.0,0.0,34,0.00,,,0.00,meteohub,2013-11-02 15:59:00,
2013-11-02 10:04:00,54.7,26.1,30.33,West,276,0.0,0.0,33,0.00,,,0.00,meteohub,2013-11-02 16:04:00,
2013-11-02 10:09:00,55.4,26.1,30.33,West,276,0.0,1.0,32,0.00,,,0.00,meteohub,2013-11-02 16:09:00,
2013-11-02 10:14:00,55.9,26.4,30.32,West,276,0.0,1.0,32,0.00,,,0.00,meteohub,2013-11-02 16:14:00,
2013-11-02 10:19:00,56.3,26.1,30.32,West,276,0.0,1.0,31,0.00,,,0.00,meteohub,2013-11-02 16:19:00,
2013-11-02 10:24:00,56.8,26.6,30.32,West,275,0.0,1.0,31,0.00,,,0.00,meteohub,2013-11-02 16:24:00,
2013-11-02 10:29:00,57.6,26.4,30.32,West,276,0.0,3.0,30,0.00,,,0.00,meteohub,2013-11-02 16:29:00,
2013-11-02 10:34:00,58.1,27.7,30.32,West,276,0.0,3.0,31,0.00,,,0.00,meteohub,2013-11-02 16:34:00,
2013-11-02 10:39:00,59.2,27.0,30.32,WSW,237,1.0,3.0,29,0.00,,,0.00,meteohub,2013-11-02 16:39:00,
2013-11-02 10:44:00,59.7,27.3,30.32,SE,146,0.0,4.0,29,0.00,,,0.00,meteohub,2013-11-02 16:44:00,
2013-11-02 10:49:00,60.6,27.3,30.31,ESE,113,3.0,4.0,28,0.00,,,0.00,meteohub,2013-11-02 16:49:00,
2013-11-02 10:54:00,61.3,27.9,30.31,East,88,5.0,7.0,28,0.00,,,0.00,meteohub,2013-11-02 16:54:00,
2013-11-02 10:59:00,62.1,28.6,30.31,East,81,2.0,7.0,28,0.00,,,0.00,meteohub,2013-11-02 16:59:00,
2013-11-02 11:05:00,62.8,27.3,30.31,ESE,105,5.0,7.0,26,0.00,,,0.00,meteohub,2013-11-02 17:05:00,
2013-11-02 11:10:00,63.9,26.4,30.31,ESE,108,7.0,9.0,24,0.00,,,0.00,meteohub,2013-11-02 17:10:00,
2013-11-02 11:15:00,64.6,24.8,30.31,SE,125,9.0,13.0,22,0.00,,,0.00,meteohub,2013-11-02 17:15:00,
2013-11-02 11:20:00,64.9,25.2,30.31,SE,142,10.0,13.0,22,0.00,,,0.00,meteohub,2013-11-02 17:20:00,
2013-11-02 11:25:00,65.3,24.4,30.30,ESE,121,10.0,14.0,21,0.00,,,0.00,meteohub,2013-11-02 17:25:00,
2013-11-02 11:30:00,65.1,25.3,30.30,ESE,106,10.0,14.0,22,0.00,,,0.00,meteohub,2013-11-02 17:30:00,
2013-11-02 11:35:00,65.3,24.4,30.30,East,82,11.0,15.0,21,0.00,,,0.00,meteohub,2013-11-02 17:35:00,
2013-11-02 11:40:00,65.1,24.3,30.29,SE,139,10.0,15.0,21,0.00,,,0.00,meteohub,2013-11-02 17:40:00,
2013-11-02 11:45:00,65.5,24.4,30.29,ESE,123,12.0,15.0,21,0.00,,,0.00,meteohub,2013-11-02 17:45:00,
2013-11-02 11:50:00,65.8,24.8,30.29,SE,130,10.0,15.0,21,0.00,,,0.00,meteohub,2013-11-02 17:50:00,
2013-11-02 11:55:00,66.0,25.0,30.29,SSE,149,11.0,19.0,21,0.00,,,0.00,meteohub,2013-11-02 17:55:00,
2013-11-02 12:00:00,66.4,25.3,30.29,SE,142,11.0,19.0,21,0.00,,,0.00,meteohub,2013-11-02 18:00:00,
2013-11-02 12:05:00,66.7,25.5,30.28,ESE,111,12.0,19.0,21,0.00,,,0.00,meteohub,2013-11-02 18:05:00,
2013-11-02 12:10:00,66.7,24.4,30.28,ESE,115,9.0,16.0,20,0.00,,,0.00,meteohub,2013-11-02 18:10:00,
2013-11-02 12:15:00,67.1,24.6,30.28,SE,126,10.0,16.0,20,0.00,,,0.00,meteohub,2013-11-02 18:15:00,
2013-11-02 12:20:00,66.9,24.6,30.28,SE,126,9.0,17.0,20,0.00,,,0.00,meteohub,2013-11-02 18:20:00,
2013-11-02 12:25:00,67.3,24.8,30.27,ESE,114,9.0,17.0,20,0.00,,,0.00,meteohub,2013-11-02 18:25:00,
2013-11-02 12:30:00,67.5,25.0,30.27,ESE,108,10.0,18.0,20,0.00,,,0.00,meteohub,2013-11-02 18:30:00,
2013-11-02 12:36:00,67.6,25.2,30.27,ESE,123,8.0,18.0,20,0.00,,,0.00,meteohub,2013-11-02 18:36:00,
2013-11-02 12:41:00,67.8,25.3,30.26,SE,129,7.0,14.0,20,0.00,,,0.00,meteohub,2013-11-02 18:41:00,
2013-11-02 12:46:00,68.5,24.6,30.26,ESE,119,11.0,14.0,19,0.00,,,0.00,meteohub,2013-11-02 18:46:00,
2013-11-02 12:51:00,69.1,25.2,30.25,SSE,158,6.0,15.0,19,0.00,,,0.00,meteohub,2013-11-02 18:51:00,
2013-11-02 12:56:00,69.3,25.2,30.25,ESE,108,4.0,15.0,19,0.00,,,0.00,meteohub,2013-11-02 18:56:00,
2013-11-02 13:01:00,69.1,25.2,30.25,SSE,147,7.0,17.0,19,0.00,,,0.00,meteohub,2013-11-02 19:01:00,
2013-11-02 13:06:00,69.3,25.2,30.24,SE,129,13.0,17.0,19,0.00,,,0.00,meteohub,2013-11-02 19:06:00,
2013-11-02 13:11:00,69.6,24.3,30.24,SE,136,7.0,16.0,18,0.00,,,0.00,meteohub,2013-11-02 19:11:00,
2013-11-02 13:16:00,69.6,24.3,30.24,ESE,104,7.0,15.0,18,0.00,,,0.00,meteohub,2013-11-02 19:16:00,
2013-11-02 13:21:00,69.8,24.4,30.24,ESE,123,8.0,15.0,18,0.00,,,0.00,meteohub,2013-11-02 19:21:00,
2013-11-02 13:26:00,70.0,24.4,30.23,SE,134,7.0,14.0,18,0.00,,,0.00,meteohub,2013-11-02 19:26:00,
2013-11-02 13:31:00,70.5,25.0,30.23,SE,132,6.0,14.0,18,0.00,,,0.00,meteohub,2013-11-02 19:31:00,
2013-11-02 13:36:00,70.9,25.3,30.23,SE,126,6.0,14.0,18,0.00,,,0.00,meteohub,2013-11-02 19:36:00,
2013-11-02 13:41:00,70.9,25.3,30.22,SE,129,6.0,14.0,18,0.00,,,0.00,meteohub,2013-11-02 19:41:00,
2013-11-02 13:46:00,71.2,25.5,30.22,SE,138,7.0,14.0,18,0.00,,,0.00,meteohub,2013-11-02 19:46:00,
2013-11-02 13:51:00,71.2,24.3,30.22,SE,136,7.0,16.0,17,0.00,,,0.00,meteohub,2013-11-02 19:51:00,
2013-11-02 13:56:00,71.2,24.3,30.21,SE,144,2.0,16.0,17,0.00,,,0.00,meteohub,2013-11-02 19:56:00,
2013-11-02 14:01:00,71.4,24.3,30.21,SE,124,5.0,14.0,17,0.00,,,0.00,meteohub,2013-11-02 20:01:00,
2013-11-02 14:06:00,72.0,24.8,30.21,SSE,165,6.0,14.0,17,0.00,,,0.00,meteohub,2013-11-02 20:06:00,
2013-11-02 14:11:00,72.3,23.5,30.20,ESE,113,8.0,14.0,16,0.00,,,0.00,meteohub,2013-11-02 20:11:00,
2013-11-02 14:17:00,72.3,23.5,30.20,SE,137,8.0,11.0,16,0.00,,,0.00,meteohub,2013-11-02 20:17:00,
2013-11-02 14:22:00,72.3,23.5,30.19,ESE,107,7.0,13.0,16,0.00,,,0.00,meteohub,2013-11-02 20:22:00,
2013-11-02 14:27:00,72.1,23.5,30.19,East,98,7.0,13.0,16,0.00,,,0.00,meteohub,2013-11-02 20:27:00,
2013-11-02 14:32:00,72.0,24.8,30.19,SSE,161,7.0,14.0,17,0.00,,,0.00,meteohub,2013-11-02 20:32:00,
2013-11-02 14:37:00,72.5,25.2,30.18,East,97,7.0,14.0,17,0.00,,,0.00,meteohub,2013-11-02 20:37:00,
2013-11-02 14:42:00,72.7,23.9,30.18,ESE,105,7.0,13.0,16,0.00,,,0.00,meteohub,2013-11-02 20:42:00,
2013-11-02 14:47:00,72.3,23.5,30.18,SE,134,10.0,13.0,16,0.00,,,0.00,meteohub,2013-11-02 20:47:00,
2013-11-02 14:52:00,72.5,23.7,30.18,SSE,154,8.0,16.0,16,0.00,,,0.00,meteohub,2013-11-02 20:52:00,
2013-11-02 14:57:00,72.7,23.9,30.17,SE,141,5.0,16.0,16,0.00,,,0.00,meteohub,2013-11-02 20:57:00,
2013-11-02 15:02:00,72.9,24.1,30.17,ESE,121,5.0,16.0,16,0.00,,,0.00,meteohub,2013-11-02 21:02:00,
2013-11-02 15:07:00,72.9,22.5,30.17,ESE,116,5.0,14.0,15,0.00,,,0.00,meteohub,2013-11-02 21:07:00,
2013-11-02 15:12:00,72.7,22.3,30.17,SE,126,5.0,14.0,15,0.00,,,0.00,meteohub,2013-11-02 21:12:00,
2013-11-02 15:17:00,72.9,22.5,30.17,SE,140,13.0,14.0,15,0.00,,,0.00,meteohub,2013-11-02 21:17:00,
2013-11-02 15:22:00,72.7,22.3,30.16,SSE,150,9.0,15.0,15,0.00,,,0.00,meteohub,2013-11-02 21:22:00,
2013-11-02 15:27:00,72.7,23.9,30.16,ESE,119,14.0,15.0,16,0.00,,,0.00,meteohub,2013-11-02 21:27:00,
2013-11-02 15:32:00,72.9,22.5,30.16,ESE,108,7.0,15.0,15,0.00,,,0.00,meteohub,2013-11-02 21:32:00,
2013-11-02 15:37:00,72.7,22.3,30.16,SE,133,8.0,15.0,15,0.00,,,0.00,meteohub,2013-11-02 21:37:00,
2013-11-02 15:42:00,72.7,22.3,30.15,East,86,6.0,15.0,15,0.00,,,0.00,meteohub,2013-11-02 21:42:00,
2013-11-02 15:47:00,72.5,22.3,30.15,SE,137,6.0,15.0,15,0.00,,,0.00,meteohub,2013-11-02 21:47:00,
2013-11-02 15:52:00,72.7,22.3,30.15,ESE,121,7.0,13.0,15,0.00,,,0.00,meteohub,2013-11-02 21:52:00,
2013-11-02 15:57:00,72.7,23.9,30.14,East,99,6.0,13.0,16,0.00,,,0.00,meteohub,2013-11-02 21:57:00,
2013-11-02 16:02:00,72.7,22.3,30.14,ESE,111,12.0,14.0,15,0.00,,,0.00,meteohub,2013-11-02 22:02:00,
2013-11-02 16:07:00,72.3,22.1,30.14,SE,145,8.0,14.0,15,0.00,,,0.00,meteohub,2013-11-02 22:07:00,
2013-11-02 16:12:00,72.5,22.3,30.14,ESE,111,8.0,14.0,15,0.00,,,0.00,meteohub,2013-11-02 22:12:00,
2013-11-02 16:17:00,72.3,22.1,30.14,ESE,123,3.0,14.0,15,0.00,,,0.00,meteohub,2013-11-02 22:17:00,
2013-11-02 16:22:00,72.3,22.1,30.14,ESE,123,5.0,12.0,15,0.00,,,0.00,meteohub,2013-11-02 22:22:00,
2013-11-02 16:27:00,72.1,21.9,30.14,ESE,123,8.0,14.0,15,0.00,,,0.00,meteohub,2013-11-02 22:27:00,
2013-11-02 16:32:00,72.0,21.7,30.13,ESE,111,5.0,14.0,15,0.00,,,0.00,meteohub,2013-11-02 22:32:00,
2013-11-02 16:37:00,72.0,21.7,30.13,ESE,123,13.0,14.0,15,0.00,,,0.00,meteohub,2013-11-02 22:37:00,
2013-11-02 16:42:00,71.8,23.2,30.13,ESE,116,10.0,13.0,16,0.00,,,0.00,meteohub,2013-11-02 22:42:00,
2013-11-02 16:47:00,71.4,22.8,30.13,SE,125,6.0,13.0,16,0.00,,,0.00,meteohub,2013-11-02 22:47:00,
2013-11-02 16:52:00,71.2,22.8,30.13,SE,126,8.0,13.0,16,0.00,,,0.00,meteohub,2013-11-02 22:52:00,
2013-11-02 16:57:00,71.1,24.1,30.13,SE,124,8.0,14.0,17,0.00,,,0.00,meteohub,2013-11-02 22:57:00,
2013-11-02 17:02:00,71.1,24.1,30.13,ESE,123,9.0,14.0,17,0.00,,,0.00,meteohub,2013-11-02 23:02:00,
2013-11-02 17:07:00,70.9,23.9,30.13,ESE,119,3.0,14.0,17,0.00,,,0.00,meteohub,2013-11-02 23:07:00,
2013-11-02 17:12:00,70.9,23.9,30.13,SE,136,6.0,14.0,17,0.00,,,0.00,meteohub,2013-11-02 23:12:00,
2013-11-02 17:17:00,70.7,23.7,30.13,SE,128,7.0,13.0,17,0.00,,,0.00,meteohub,2013-11-02 23:17:00,
2013-11-02 17:22:00,70.5,25.0,30.13,ESE,109,5.0,11.0,18,0.00,,,0.00,meteohub,2013-11-02 23:22:00,
2013-11-02 17:27:00,70.3,23.5,30.13,SE,136,3.0,11.0,17,0.00,,,0.00,meteohub,2013-11-02 23:27:00,
2013-11-02 17:32:00,70.2,23.4,30.13,ESE,111,5.0,11.0,17,0.00,,,0.00,meteohub,2013-11-02 23:32:00,
2013-11-02 17:37:00,70.0,24.4,30.13,ESE,115,8.0,10.0,18,0.00,,,0.00,meteohub,2013-11-02 23:37:00,
2013-11-02 17:42:00,69.8,24.4,30.12,ESE,119,4.0,11.0,18,0.00,,,0.00,meteohub,2013-11-02 23:42:00,
2013-11-02 17:47:00,69.4,25.3,30.12,ESE,119,0.0,11.0,19,0.00,,,0.00,meteohub,2013-11-02 23:47:00,
2013-11-02 17:52:00,69.3,25.2,30.12,SE,124,4.0,9.0,19,0.00,,,0.00,meteohub,2013-11-02 23:52:00,
2013-11-02 17:57:00,69.1,25.2,30.12,SE,129,3.0,5.0,19,0.00,,,0.00,meteohub,2013-11-02 23:57:00,
2013-11-02 18:02:00,68.7,24.8,30.12,SE,130,5.0,6.0,19,0.00,,,0.00,meteohub,2013-11-03 00:02:00,
2013-11-02 18:07:00,68.4,25.7,30.12,SE,130,3.0,7.0,20,0.00,,,0.00,meteohub,2013-11-03 00:07:00,
2013-11-02 18:12:00,68.2,25.5,30.12,ESE,123,2.0,7.0,20,0.00,,,0.00,meteohub,2013-11-03 00:12:00,
2013-11-02 18:17:00,67.8,25.3,30.12,SE,126,2.0,7.0,20,0.00,,,0.00,meteohub,2013-11-03 00:17:00,
2013-11-02 18:22:00,67.5,25.0,30.12,SE,126,1.0,5.0,20,0.00,,,0.00,meteohub,2013-11-03 00:22:00,
2013-11-02 18:27:00,67.3,26.1,30.12,SE,134,2.0,5.0,21,0.00,,,0.00,meteohub,2013-11-03 00:27:00,
2013-11-02 18:32:00,66.7,25.5,30.12,SE,134,0.0,4.0,21,0.00,,,0.00,meteohub,2013-11-03 00:32:00,
2013-11-02 18:37:00,66.6,25.3,30.12,SE,134,0.0,4.0,21,0.00,,,0.00,meteohub,2013-11-03 00:37:00,
2013-11-02 18:42:00,66.2,25.2,30.12,SE,134,1.0,4.0,21,0.00,,,0.00,meteohub,2013-11-03 00:42:00,
2013-11-02 18:47:00,65.8,24.8,30.12,SE,145,0.0,3.0,21,0.00,,,0.00,meteohub,2013-11-03 00:47:00,
2013-11-02 18:52:00,65.5,24.4,30.12,SE,145,1.0,3.0,21,0.00,,,0.00,meteohub,2013-11-03 00:52:00,
2013-11-02 18:57:00,64.9,24.1,30.12,SE,144,1.0,3.0,21,0.00,,,0.00,meteohub,2013-11-03 00:57:00,
2013-11-02 19:02:00,64.6,24.8,30.13,SE,145,1.0,2.0,22,0.00,,,0.00,meteohub,2013-11-03 01:02:00,
2013-11-02 19:07:00,64.0,24.4,30.12,SE,145,1.0,2.0,22,0.00,,,0.00,meteohub,2013-11-03 01:07:00,
2013-11-02 19:12:00,63.7,24.1,30.12,SSE,147,0.0,3.0,22,0.00,,,0.00,meteohub,2013-11-03 01:12:00,
2013-11-02 19:17:00,63.1,24.8,30.12,SSE,147,0.0,3.0,23,0.00,,,0.00,meteohub,2013-11-03 01:17:00,
2013-11-02 19:22:00,63.0,24.6,30.12,SSE,147,0.0,3.0,23,0.00,,,0.00,meteohub,2013-11-03 01:22:00,
2013-11-02 19:27:00,62.6,24.3,30.12,SSE,147,0.0,2.0,23,0.00,,,0.00,meteohub,2013-11-03 01:27:00,
2013-11-02 19:32:00,62.4,24.1,30.12,SSE,147,0.0,2.0,23,0.00,,,0.00,meteohub,2013-11-03 01:32:00,
2013-11-02 19:37:00,62.1,23.9,30.12,SSE,147,0.0,1.0,23,0.00,,,0.00,meteohub,2013-11-03 01:37:00,
2013-11-02 19:42:00,61.9,24.6,30.12,SSE,147,0.0,0.0,24,0.00,,,0.00,meteohub,2013-11-03 01:42:00,
2013-11-02 19:47:00,61.5,24.4,30.12,SSE,147,0.0,0.0,24,0.00,,,0.00,meteohub,2013-11-03 01:47:00,
2013-11-02 19:52:00,61.3,25.2,30.12,SSE,147,0.0,0.0,25,0.00,,,0.00,meteohub,2013-11-03 01:52:00,
2013-11-02 19:57:00,61.0,25.0,30.12,SSE,147,0.0,0.0,25,0.00,,,0.00,meteohub,2013-11-03 01:57:00,
2013-11-02 20:02:00,60.4,25.3,30.12,SSE,147,0.0,0.0,26,0.00,,,0.00,meteohub,2013-11-03 02:02:00,
2013-11-02 20:07:00,60.3,25.2,30.12,SSE,147,0.0,0.0,26,0.00,,,0.00,meteohub,2013-11-03 02:07:00,
2013-11-02 20:12:00,59.7,25.7,30.12,SSE,147,0.0,0.0,27,0.00,,,0.00,meteohub,2013-11-03 02:12:00,
2013-11-02 20:17:00,59.4,26.2,30.12,SSE,147,0.0,0.0,28,0.00,,,0.00,meteohub,2013-11-03 02:17:00,
2013-11-02 20:22:00,59.0,25.9,30.12,SSE,147,0.0,0.0,28,0.00,,,0.00,meteohub,2013-11-03 02:22:00,
2013-11-02 20:27:00,58.6,25.7,30.12,SSE,147,0.0,0.0,28,0.00,,,0.00,meteohub,2013-11-03 02:27:00,
2013-11-02 20:32:00,58.3,25.3,30.12,SSE,147,0.0,0.0,28,0.00,,,0.00,meteohub,2013-11-03 02:32:00,
2013-11-02 20:37:00,57.9,25.9,30.12,SSE,148,0.0,3.0,29,0.00,,,0.00,meteohub,2013-11-03 02:37:00,
2013-11-02 20:42:00,57.7,25.7,30.12,SSE,148,0.0,3.0,29,0.00,,,0.00,meteohub,2013-11-03 02:42:00,
2013-11-02 20:47:00,57.6,25.5,30.12,SSE,148,0.0,3.0,29,0.00,,,0.00,meteohub,2013-11-03 02:47:00,
2013-11-02 20:52:00,57.4,25.3,30.12,SSE,148,0.0,1.0,29,0.00,,,0.00,meteohub,2013-11-03 02:52:00,
2013-11-02 20:57:00,57.2,25.2,30.12,SSE,148,0.0,1.0,29,0.00,,,0.00,meteohub,2013-11-03 02:57:00,
2013-11-02 21:02:00,57.0,25.0,30.12,SE,146,0.0,2.0,29,0.00,,,0.00,meteohub,2013-11-03 03:02:00,
2013-11-02 21:07:00,57.0,25.0,30.12,SSE,149,3.0,5.0,29,0.00,,,0.00,meteohub,2013-11-03 03:07:00,
2013-11-02 21:12:00,57.2,24.4,30.12,SSE,153,3.0,6.0,28,0.00,,,0.00,meteohub,2013-11-03 03:12:00,
2013-11-02 21:17:00,57.6,23.9,30.12,SE,146,5.0,8.0,27,0.00,,,0.00,meteohub,2013-11-03 03:17:00,
2013-11-02 21:22:00,57.9,24.1,30.11,SE,143,3.0,8.0,27,0.00,,,0.00,meteohub,2013-11-03 03:22:00,
2013-11-02 21:27:00,57.9,24.1,30.11,SE,135,4.0,8.0,27,0.00,,,0.00,meteohub,2013-11-03 03:27:00,
2013-11-02 21:32:00,58.1,23.4,30.11,SSE,153,2.0,8.0,26,0.00,,,0.00,meteohub,2013-11-03 03:32:00,
2013-11-02 21:37:00,58.1,23.4,30.11,SSE,152,2.0,8.0,26,0.00,,,0.00,meteohub,2013-11-03 03:37:00,
2013-11-02 21:42:00,57.9,24.1,30.11,SSE,153,0.0,6.0,27,0.00,,,0.00,meteohub,2013-11-03 03:42:00,
2013-11-02 21:47:00,57.7,23.9,30.11,SSE,161,2.0,5.0,27,0.00,,,0.00,meteohub,2013-11-03 03:47:00,
2013-11-02 21:52:00,57.6,23.9,30.11,SSE,161,2.0,5.0,27,0.00,,,0.00,meteohub,2013-11-03 03:52:00,
2013-11-02 21:57:00,57.4,23.7,30.11,SSE,159,0.0,4.0,27,0.00,,,0.00,meteohub,2013-11-03 03:57:00,
2013-11-02 22:01:00,57.4,23.7,30.11,SSE,161,1.0,4.0,27,0.00,,,0.00,meteohub,2013-11-03 04:01:00,
2013-11-02 22:02:00,57.2,23.5,30.11,SSE,161,2.0,4.0,27,0.00,,,0.00,meteohub,2013-11-03 04:02:00,
2013-11-02 22:06:00,57.0,23.4,30.11,SSE,158,0.0,4.0,27,0.00,,,0.00,meteohub,2013-11-03 04:06:00,
2013-11-02 22:07:00,57.0,23.4,30.11,SSE,158,2.0,4.0,27,0.00,,,0.00,meteohub,2013-11-03 04:07:00,
2013-11-02 22:12:00,56.8,23.2,30.11,SSE,158,0.0,4.0,27,0.00,,,0.00,meteohub,2013-11-03 04:12:00,
2013-11-02 22:17:00,56.8,23.2,30.11,SSE,158,1.0,4.0,27,0.00,,,0.00,meteohub,2013-11-03 04:17:00,
2013-11-02 22:22:00,56.7,23.0,30.11,SSE,158,1.0,4.0,27,0.00,,,0.00,meteohub,2013-11-03 04:22:00,
2013-11-02 22:28:00,56.5,22.8,30.11,SSE,156,1.0,3.0,27,0.00,,,0.00,meteohub,2013-11-03 04:28:00,
2013-11-02 22:33:00,56.1,22.6,30.11,SSE,150,1.0,3.0,27,0.00,,,0.00,meteohub,2013-11-03 04:33:00,
2013-11-02 22:38:00,56.1,23.4,30.11,SE,146,0.0,4.0,28,0.00,,,0.00,meteohub,2013-11-03 04:38:00,
2013-11-02 22:43:00,55.9,24.1,30.11,SE,142,0.0,4.0,29,0.00,,,0.00,meteohub,2013-11-03 04:43:00,
2013-11-02 22:48:00,55.8,23.9,30.10,SE,142,0.0,4.0,29,0.00,,,0.00,meteohub,2013-11-03 04:48:00,
2013-11-02 22:53:00,55.8,23.2,30.10,SE,142,0.0,3.0,28,0.00,,,0.00,meteohub,2013-11-03 04:53:00,
2013-11-02 22:58:00,55.6,23.0,30.10,SE,142,0.0,3.0,28,0.00,,,0.00,meteohub,2013-11-03 04:58:00,
2013-11-02 23:03:00,55.4,22.8,30.10,SE,142,0.0,1.0,28,0.00,,,0.00,meteohub,2013-11-03 05:03:00,
2013-11-02 23:08:00,55.2,23.5,30.10,SE,142,0.0,1.0,29,0.00,,,0.00,meteohub,2013-11-03 05:08:00,
2013-11-02 23:13:00,54.9,23.2,30.10,SE,142,0.0,1.0,29,0.00,,,0.00,meteohub,2013-11-03 05:13:00,
2013-11-02 23:18:00,54.9,23.2,30.10,SSE,152,0.0,3.0,29,0.00,,,0.00,meteohub,2013-11-03 05:18:00,
2013-11-02 23:23:00,54.7,23.0,30.10,SSE,160,2.0,3.0,29,0.00,,,0.00,meteohub,2013-11-03 05:23:00,
2013-11-02 23:28:00,54.7,23.0,30.10,SSW,192,1.0,4.0,29,0.00,,,0.00,meteohub,2013-11-03 05:28:00,
2013-11-02 23:33:00,54.7,23.0,30.09,SSW,192,0.0,4.0,29,0.00,,,0.00,meteohub,2013-11-03 05:33:00,
2013-11-02 23:38:00,54.5,22.1,30.09,SE,145,0.0,4.0,28,0.00,,,0.00,meteohub,2013-11-03 05:38:00,
2013-11-02 23:43:00,54.5,22.1,30.09,SSE,157,3.0,4.0,28,0.00,,,0.00,meteohub,2013-11-03 05:43:00,
2013-11-02 23:48:00,54.3,21.9,30.09,SSE,167,1.0,5.0,28,0.00,,,0.00,meteohub,2013-11-03 05:48:00,
2013-11-02 23:53:00,54.3,21.9,30.09,SSE,167,3.0,5.0,28,0.00,,,0.00,meteohub,2013-11-03 05:53:00,
2013-11-02 23:58:00,54.3,21.9,30.09,South,180,2.0,5.0,28,0.00,,,0.00,meteohub,2013-11-03 05:58:00,